CEB226 RPVP-RPVM
Flight info
| Callsign | CEB226 |
|---|---|
| Flight time | 0h 58m |
| Altitude | 35000 |
| Route | SAIRA1E SAIRA W291 KALAH Z151 TADAG TADAG3P |
| Aircraft | A320/M-SDE3FGHIRWY/LB1 |
Departure
| Time | 2026-04-22 14:22 |
|---|---|
| Airport | Puerto Princesa International Airport / PAF Antonio Bautista Air Base (RPVP) |
Arrival
| Time | 2026-04-22 15:20 |
|---|---|
| Airport | Mactan Cebu International Airport (RPVM) |
| Time | Latitude | Longitude | Altitude | Speed | Heading |
|---|---|---|---|---|---|
| 2026-04-22 14:02 | 9.74512 | 118.74998 | 75 ft | 0 kts | 2° |
| 2026-04-22 14:13 | 9.74504 | 118.74997 | 75 ft | 2 kts | 2° |
| 2026-04-22 14:13 | 9.74490 | 118.74996 | 75 ft | 2 kts | 3° |
| 2026-04-22 14:13 | 9.74475 | 118.74996 | 75 ft | 2 kts | 2° |
| 2026-04-22 14:13 | 9.74460 | 118.74995 | 75 ft | 2 kts | 3° |
| 2026-04-22 14:14 | 9.74445 | 118.74995 | 75 ft | 2 kts | 2° |
| 2026-04-22 14:14 | 9.74435 | 118.74994 | 75 ft | 1 kts | 3° |
| 2026-04-22 14:14 | 9.74422 | 118.74997 | 75 ft | 2 kts | 318° |
| 2026-04-22 14:14 | 9.74414 | 118.75009 | 75 ft | 0 kts | 279° |
| 2026-04-22 14:15 | 9.74414 | 118.75015 | 75 ft | 1 kts | 270° |
| 2026-04-22 14:15 | 9.74414 | 118.75018 | 75 ft | 0 kts | 272° |
| 2026-04-22 14:15 | 9.74414 | 118.75017 | 75 ft | 0 kts | 272° |
| 2026-04-22 14:17 | 9.74414 | 118.75011 | 75 ft | 2 kts | 273° |
| 2026-04-22 14:17 | 9.74416 | 118.74979 | 75 ft | 6 kts | 274° |
| 2026-04-22 14:17 | 9.74419 | 118.74920 | 75 ft | 10 kts | 272° |
| 2026-04-22 14:17 | 9.74422 | 118.74841 | 75 ft | 13 kts | 272° |
| 2026-04-22 14:18 | 9.74422 | 118.74742 | 75 ft | 12 kts | 256° |
| 2026-04-22 14:18 | 9.74366 | 118.74706 | 75 ft | 5 kts | 179° |
| 2026-04-22 14:18 | 9.74359 | 118.74706 | 75 ft | 0 kts | 179° |
| 2026-04-22 14:19 | 9.74357 | 118.74706 | 75 ft | 1 kts | 179° |
| 2026-04-22 14:19 | 9.74312 | 118.74705 | 75 ft | 10 kts | 181° |
| 2026-04-22 14:19 | 9.74254 | 118.74755 | 75 ft | 12 kts | 91° |
| 2026-04-22 14:19 | 9.74254 | 118.74820 | 75 ft | 2 kts | 92° |
| 2026-04-22 14:21 | 9.74252 | 118.74857 | 75 ft | 24 kts | 93° |
| 2026-04-22 14:21 | 9.74233 | 118.75277 | 75 ft | 93 kts | 92° |
| 2026-04-22 14:22 | 9.74116 | 118.77518 | 692 ft | 150 kts | 94° |
| 2026-04-22 14:22 | 9.74071 | 118.78212 | 1064 ft | 152 kts | 93° |
| 2026-04-22 14:22 | 9.73970 | 118.80372 | 2131 ft | 162 kts | 92° |
| 2026-04-22 14:23 | 9.73922 | 118.81570 | 2543 ft | 178 kts | 92° |
| 2026-04-22 14:23 | 9.73869 | 118.82869 | 2943 ft | 195 kts | 91° |
| 2026-04-22 14:23 | 9.73811 | 118.84286 | 3430 ft | 207 kts | 91° |
| 2026-04-22 14:23 | 9.73751 | 118.85733 | 4078 ft | 209 kts | 91° |
| 2026-04-22 14:24 | 9.73692 | 118.87203 | 4746 ft | 211 kts | 92° |
| 2026-04-22 14:24 | 9.73630 | 118.88698 | 5415 ft | 213 kts | 92° |
| 2026-04-22 14:24 | 9.73567 | 118.90176 | 6085 ft | 214 kts | 92° |
| 2026-04-22 14:24 | 9.73503 | 118.91692 | 6690 ft | 218 kts | 92° |
| 2026-04-22 14:25 | 9.73435 | 118.93296 | 6948 ft | 243 kts | 92° |
| 2026-04-22 14:25 | 9.73358 | 118.95082 | 7369 ft | 261 kts | 92° |
| 2026-04-22 14:25 | 9.73279 | 118.96951 | 7818 ft | 277 kts | 92° |
| 2026-04-22 14:25 | 9.73194 | 118.98936 | 8470 ft | 284 kts | 93° |
| 2026-04-22 14:26 | 9.73110 | 119.00938 | 9200 ft | 288 kts | 93° |
| 2026-04-22 14:26 | 9.73022 | 119.02988 | 9870 ft | 292 kts | 93° |
| 2026-04-22 14:26 | 9.72932 | 119.05077 | 10466 ft | 300 kts | 93° |
| 2026-04-22 14:26 | 9.72881 | 119.07228 | 10928 ft | 311 kts | 90° |
| 2026-04-22 14:27 | 9.72933 | 119.09432 | 11518 ft | 316 kts | 89° |
| 2026-04-22 14:27 | 9.72999 | 119.11662 | 12115 ft | 320 kts | 89° |
| 2026-04-22 14:27 | 9.73068 | 119.13928 | 12693 ft | 324 kts | 89° |
| 2026-04-22 14:27 | 9.73136 | 119.16212 | 13251 ft | 328 kts | 89° |
| 2026-04-22 14:28 | 9.73205 | 119.18553 | 13815 ft | 332 kts | 89° |
| 2026-04-22 14:28 | 9.73273 | 119.20898 | 14384 ft | 334 kts | 89° |
| 2026-04-22 14:28 | 9.73342 | 119.23257 | 14931 ft | 337 kts | 88° |
| 2026-04-22 14:28 | 9.73411 | 119.25633 | 15467 ft | 339 kts | 88° |
| 2026-04-22 14:29 | 9.73480 | 119.28028 | 15988 ft | 342 kts | 88° |
| 2026-04-22 14:29 | 9.73548 | 119.30406 | 16496 ft | 344 kts | 88° |
| 2026-04-22 14:29 | 9.73617 | 119.32834 | 17008 ft | 346 kts | 88° |
| 2026-04-22 14:29 | 9.73687 | 119.35271 | 17514 ft | 347 kts | 88° |
| 2026-04-22 14:30 | 9.73758 | 119.37717 | 18029 ft | 348 kts | 88° |
| 2026-04-22 14:30 | 9.73830 | 119.40178 | 18518 ft | 350 kts | 88° |
| 2026-04-22 14:30 | 9.73900 | 119.42628 | 18993 ft | 351 kts | 88° |
| 2026-04-22 14:30 | 9.73946 | 119.45125 | 19450 ft | 353 kts | 89° |
| 2026-04-22 14:31 | 9.73942 | 119.47586 | 19899 ft | 355 kts | 90° |
| 2026-04-22 14:31 | 9.73929 | 119.50094 | 20371 ft | 356 kts | 90° |
| 2026-04-22 14:31 | 9.73916 | 119.52601 | 20839 ft | 357 kts | 90° |
| 2026-04-22 14:31 | 9.73906 | 119.55116 | 21307 ft | 358 kts | 90° |
| 2026-04-22 14:32 | 9.73896 | 119.57637 | 21749 ft | 359 kts | 90° |
| 2026-04-22 14:32 | 9.73888 | 119.60165 | 22191 ft | 360 kts | 90° |
| 2026-04-22 14:32 | 9.73880 | 119.62703 | 22626 ft | 362 kts | 90° |
| 2026-04-22 14:32 | 9.73872 | 119.65260 | 23028 ft | 364 kts | 90° |
| 2026-04-22 14:33 | 9.73865 | 119.67831 | 23425 ft | 367 kts | 90° |
| 2026-04-22 14:33 | 9.73858 | 119.70406 | 23808 ft | 370 kts | 90° |
| 2026-04-22 14:33 | 9.73850 | 119.73038 | 24196 ft | 372 kts | 90° |
| 2026-04-22 14:33 | 9.73842 | 119.75663 | 24575 ft | 375 kts | 90° |
| 2026-04-22 14:34 | 9.73835 | 119.78310 | 24932 ft | 378 kts | 90° |
| 2026-04-22 14:34 | 9.73827 | 119.80984 | 25288 ft | 381 kts | 90° |
| 2026-04-22 14:34 | 9.73819 | 119.83670 | 25628 ft | 385 kts | 90° |
| 2026-04-22 14:34 | 9.73811 | 119.86391 | 25968 ft | 388 kts | 90° |
| 2026-04-22 14:35 | 9.73801 | 119.89118 | 26325 ft | 390 kts | 90° |
| 2026-04-22 14:35 | 9.73791 | 119.91877 | 26700 ft | 392 kts | 90° |
| 2026-04-22 14:35 | 9.73780 | 119.94630 | 27019 ft | 395 kts | 90° |
| 2026-04-22 14:35 | 9.73768 | 119.97439 | 27342 ft | 398 kts | 90° |
| 2026-04-22 14:36 | 9.73756 | 120.00241 | 27667 ft | 401 kts | 90° |
| 2026-04-22 14:36 | 9.73744 | 120.03088 | 28001 ft | 404 kts | 90° |
| 2026-04-22 14:36 | 9.73731 | 120.05913 | 28318 ft | 406 kts | 90° |
| 2026-04-22 14:36 | 9.73720 | 120.08807 | 28633 ft | 409 kts | 90° |
| 2026-04-22 14:37 | 9.73712 | 120.11704 | 28956 ft | 411 kts | 90° |
| 2026-04-22 14:37 | 9.73705 | 120.14594 | 29275 ft | 414 kts | 90° |
| 2026-04-22 14:37 | 9.73695 | 120.17491 | 29579 ft | 416 kts | 91° |
| 2026-04-22 14:37 | 9.73682 | 120.20424 | 29903 ft | 418 kts | 91° |
| 2026-04-22 14:38 | 9.73668 | 120.23383 | 30226 ft | 420 kts | 91° |
| 2026-04-22 14:38 | 9.73654 | 120.26344 | 30537 ft | 422 kts | 91° |
| 2026-04-22 14:38 | 9.73640 | 120.29301 | 30845 ft | 424 kts | 91° |
| 2026-04-22 14:38 | 9.73626 | 120.32350 | 31145 ft | 426 kts | 91° |
| 2026-04-22 14:39 | 9.73612 | 120.35328 | 31422 ft | 429 kts | 91° |
| 2026-04-22 14:39 | 9.73598 | 120.38345 | 31705 ft | 431 kts | 91° |
| 2026-04-22 14:39 | 9.73583 | 120.41385 | 31984 ft | 433 kts | 91° |
| 2026-04-22 14:40 | 9.73554 | 120.47495 | 32503 ft | 437 kts | 91° |
| 2026-04-22 14:40 | 9.73539 | 120.50616 | 32771 ft | 440 kts | 91° |
| 2026-04-22 14:40 | 9.73523 | 120.53725 | 33053 ft | 442 kts | 91° |
| 2026-04-22 14:40 | 9.73507 | 120.56837 | 33334 ft | 444 kts | 91° |
| 2026-04-22 14:41 | 9.73491 | 120.59930 | 33624 ft | 446 kts | 91° |
| 2026-04-22 14:41 | 9.73483 | 120.63114 | 33902 ft | 448 kts | 90° |
| 2026-04-22 14:41 | 9.73604 | 120.66259 | 34160 ft | 450 kts | 87° |
| 2026-04-22 14:41 | 9.73908 | 120.69453 | 34421 ft | 452 kts | 83° |
| 2026-04-22 14:42 | 9.74362 | 120.72620 | 34673 ft | 454 kts | 82° |
| 2026-04-22 14:42 | 9.74847 | 120.75781 | 34843 ft | 456 kts | 82° |
| 2026-04-22 14:42 | 9.75822 | 120.82101 | 34850 ft | 457 kts | 82° |
| 2026-04-22 14:43 | 9.76794 | 120.88448 | 34851 ft | 457 kts | 82° |
| 2026-04-22 14:43 | 9.77763 | 120.94816 | 34850 ft | 457 kts | 82° |
| 2026-04-22 14:44 | 9.78729 | 121.01183 | 34852 ft | 457 kts | 82° |
| 2026-04-22 14:44 | 9.79689 | 121.07518 | 34855 ft | 457 kts | 82° |
| 2026-04-22 14:45 | 9.80651 | 121.13880 | 34861 ft | 457 kts | 82° |
| 2026-04-22 14:45 | 9.81612 | 121.20238 | 34869 ft | 456 kts | 82° |
| 2026-04-22 14:46 | 9.82570 | 121.26590 | 34873 ft | 457 kts | 82° |
| 2026-04-22 14:46 | 9.83535 | 121.32985 | 34872 ft | 458 kts | 82° |
| 2026-04-22 14:47 | 9.84496 | 121.39368 | 34873 ft | 459 kts | 82° |
| 2026-04-22 14:47 | 9.85457 | 121.45760 | 34874 ft | 458 kts | 82° |
| 2026-04-22 14:48 | 9.86413 | 121.52131 | 34872 ft | 458 kts | 82° |
| 2026-04-22 14:48 | 9.87370 | 121.58500 | 34872 ft | 458 kts | 82° |
| 2026-04-22 14:49 | 9.88328 | 121.64887 | 34871 ft | 458 kts | 82° |
| 2026-04-22 14:49 | 9.89288 | 121.71300 | 34871 ft | 458 kts | 82° |
| 2026-04-22 14:50 | 9.90245 | 121.77696 | 34872 ft | 459 kts | 82° |
| 2026-04-22 14:50 | 9.91212 | 121.84161 | 34870 ft | 460 kts | 82° |
| 2026-04-22 14:51 | 9.92164 | 121.90533 | 34871 ft | 460 kts | 82° |
| 2026-04-22 14:51 | 9.93122 | 121.96963 | 34872 ft | 460 kts | 82° |
| 2026-04-22 14:52 | 9.94073 | 122.03387 | 34870 ft | 460 kts | 82° |
| 2026-04-22 14:52 | 9.94546 | 122.06589 | 34664 ft | 459 kts | 82° |
| 2026-04-22 14:52 | 9.95022 | 122.09807 | 33788 ft | 463 kts | 82° |
| 2026-04-22 14:53 | 9.95499 | 122.13039 | 32786 ft | 467 kts | 82° |
| 2026-04-22 14:53 | 9.95974 | 122.16268 | 32114 ft | 465 kts | 82° |
| 2026-04-22 14:53 | 9.96451 | 122.19500 | 31589 ft | 459 kts | 82° |
| 2026-04-22 14:53 | 9.96917 | 122.22652 | 31085 ft | 454 kts | 81° |
| 2026-04-22 14:54 | 9.97384 | 122.25817 | 30542 ft | 450 kts | 81° |
| 2026-04-22 14:54 | 9.97846 | 122.28951 | 30007 ft | 445 kts | 81° |
| 2026-04-22 14:54 | 9.98304 | 122.32058 | 29489 ft | 440 kts | 81° |
| 2026-04-22 14:54 | 9.98752 | 122.35103 | 28982 ft | 435 kts | 81° |
| 2026-04-22 14:55 | 9.99270 | 122.38108 | 28388 ft | 432 kts | 77° |
| 2026-04-22 14:55 | 10.00087 | 122.41024 | 27852 ft | 427 kts | 70° |
| 2026-04-22 14:55 | 10.01193 | 122.43841 | 27387 ft | 421 kts | 66° |
| 2026-04-22 14:55 | 10.02371 | 122.46549 | 26949 ft | 415 kts | 66° |
| 2026-04-22 14:56 | 10.03538 | 122.49195 | 26530 ft | 409 kts | 66° |
| 2026-04-22 14:56 | 10.04702 | 122.51840 | 26098 ft | 403 kts | 66° |
| 2026-04-22 14:56 | 10.05827 | 122.54404 | 25689 ft | 397 kts | 66° |
| 2026-04-22 14:56 | 10.06950 | 122.56974 | 25260 ft | 392 kts | 66° |
| 2026-04-22 14:57 | 10.08051 | 122.59500 | 24850 ft | 387 kts | 66° |
| 2026-04-22 14:57 | 10.09117 | 122.61947 | 24458 ft | 381 kts | 66° |
| 2026-04-22 14:57 | 10.10183 | 122.64397 | 24076 ft | 375 kts | 66° |
| 2026-04-22 14:57 | 10.11231 | 122.66806 | 23704 ft | 370 kts | 66° |
| 2026-04-22 14:58 | 10.12260 | 122.69172 | 23281 ft | 366 kts | 66° |
| 2026-04-22 14:58 | 10.13290 | 122.71542 | 22842 ft | 362 kts | 66° |
| 2026-04-22 14:58 | 10.14302 | 122.73872 | 22402 ft | 359 kts | 66° |
| 2026-04-22 14:58 | 10.15296 | 122.76157 | 21977 ft | 356 kts | 66° |
| 2026-04-22 14:59 | 10.16303 | 122.78476 | 21525 ft | 354 kts | 66° |
| 2026-04-22 14:59 | 10.17286 | 122.80738 | 21058 ft | 352 kts | 66° |
| 2026-04-22 14:59 | 10.18271 | 122.83006 | 20599 ft | 351 kts | 66° |
| 2026-04-22 14:59 | 10.19254 | 122.85270 | 20134 ft | 350 kts | 66° |
| 2026-04-22 15:00 | 10.20235 | 122.87531 | 19689 ft | 348 kts | 66° |
| 2026-04-22 15:00 | 10.20791 | 122.88812 | 19438 ft | 347 kts | 66° |
| 2026-04-22 15:00 | 10.21748 | 122.91019 | 19007 ft | 345 kts | 66° |
| 2026-04-22 15:00 | 10.22720 | 122.93259 | 18567 ft | 344 kts | 66° |
| 2026-04-22 15:01 | 10.23680 | 122.95470 | 18142 ft | 342 kts | 66° |
| 2026-04-22 15:01 | 10.24633 | 122.97669 | 17710 ft | 340 kts | 67° |
| 2026-04-22 15:01 | 10.25433 | 122.99931 | 17278 ft | 339 kts | 75° |
| 2026-04-22 15:01 | 10.25897 | 123.02307 | 16863 ft | 337 kts | 83° |
| 2026-04-22 15:02 | 10.26118 | 123.04684 | 16457 ft | 336 kts | 85° |
| 2026-04-22 15:02 | 10.26297 | 123.07056 | 16056 ft | 334 kts | 86° |
| 2026-04-22 15:02 | 10.26474 | 123.09399 | 15654 ft | 333 kts | 85° |
| 2026-04-22 15:02 | 10.26658 | 123.11771 | 15231 ft | 333 kts | 86° |
| 2026-04-22 15:03 | 10.26675 | 123.14116 | 14822 ft | 332 kts | 95° |
| 2026-04-22 15:03 | 10.26280 | 123.16437 | 14426 ft | 330 kts | 105° |
| 2026-04-22 15:03 | 10.25635 | 123.18686 | 14036 ft | 329 kts | 107° |
| 2026-04-22 15:03 | 10.24963 | 123.20878 | 13644 ft | 328 kts | 107° |
| 2026-04-22 15:04 | 10.24279 | 123.23104 | 13228 ft | 327 kts | 107° |
| 2026-04-22 15:04 | 10.23604 | 123.25325 | 12829 ft | 326 kts | 107° |
| 2026-04-22 15:04 | 10.22950 | 123.27493 | 12459 ft | 323 kts | 107° |
| 2026-04-22 15:04 | 10.22297 | 123.29672 | 12075 ft | 320 kts | 107° |
| 2026-04-22 15:05 | 10.21646 | 123.31850 | 11677 ft | 318 kts | 107° |
| 2026-04-22 15:05 | 10.21005 | 123.33997 | 11287 ft | 316 kts | 107° |
| 2026-04-22 15:05 | 10.20369 | 123.36121 | 10901 ft | 313 kts | 107° |
| 2026-04-22 15:05 | 10.19738 | 123.38231 | 10517 ft | 310 kts | 107° |
| 2026-04-22 15:06 | 10.19111 | 123.40327 | 10136 ft | 308 kts | 107° |
| 2026-04-22 15:06 | 10.18498 | 123.42371 | 9839 ft | 302 kts | 107° |
| 2026-04-22 15:06 | 10.17895 | 123.44387 | 9619 ft | 294 kts | 107° |
| 2026-04-22 15:06 | 10.17302 | 123.46368 | 9377 ft | 287 kts | 107° |
| 2026-04-22 15:07 | 10.16731 | 123.48273 | 9040 ft | 285 kts | 107° |
| 2026-04-22 15:07 | 10.16156 | 123.50189 | 8787 ft | 279 kts | 107° |
| 2026-04-22 15:07 | 10.15601 | 123.52045 | 8626 ft | 270 kts | 107° |
| 2026-04-22 15:07 | 10.15061 | 123.53848 | 8472 ft | 261 kts | 107° |
| 2026-04-22 15:08 | 10.14540 | 123.55589 | 8321 ft | 253 kts | 107° |
| 2026-04-22 15:08 | 10.14037 | 123.57272 | 8172 ft | 245 kts | 107° |
| 2026-04-22 15:08 | 10.13548 | 123.58902 | 8020 ft | 237 kts | 107° |
| 2026-04-22 15:08 | 10.13075 | 123.60484 | 7871 ft | 229 kts | 107° |
| 2026-04-22 15:09 | 10.12615 | 123.62015 | 7721 ft | 221 kts | 107° |
| 2026-04-22 15:09 | 10.12184 | 123.63451 | 7643 ft | 205 kts | 107° |
| 2026-04-22 15:09 | 10.11780 | 123.64799 | 7461 ft | 192 kts | 106° |
| 2026-04-22 15:09 | 10.11399 | 123.66070 | 7249 ft | 181 kts | 106° |
| 2026-04-22 15:10 | 10.11042 | 123.67263 | 7036 ft | 170 kts | 106° |
| 2026-04-22 15:10 | 10.10712 | 123.68368 | 6804 ft | 162 kts | 106° |
| 2026-04-22 15:10 | 10.10386 | 123.69456 | 6496 ft | 159 kts | 107° |
| 2026-04-22 15:10 | 10.10066 | 123.70526 | 6154 ft | 159 kts | 107° |
| 2026-04-22 15:11 | 10.09743 | 123.71598 | 5819 ft | 157 kts | 106° |
| 2026-04-22 15:11 | 10.09421 | 123.72667 | 5490 ft | 156 kts | 106° |
| 2026-04-22 15:11 | 10.09110 | 123.73719 | 5171 ft | 154 kts | 102° |
| 2026-04-22 15:11 | 10.09012 | 123.74781 | 4840 ft | 153 kts | 85° |
| 2026-04-22 15:12 | 10.09225 | 123.75823 | 4523 ft | 151 kts | 70° |
| 2026-04-22 15:12 | 10.09721 | 123.76757 | 4211 ft | 150 kts | 54° |
| 2026-04-22 15:12 | 10.10425 | 123.77542 | 3894 ft | 149 kts | 47° |
| 2026-04-22 15:12 | 10.11149 | 123.78266 | 3599 ft | 145 kts | 46° |
| 2026-04-22 15:13 | 10.11878 | 123.78989 | 3398 ft | 146 kts | 46° |
| 2026-04-22 15:13 | 10.12598 | 123.79705 | 3199 ft | 143 kts | 46° |
| 2026-04-22 15:13 | 10.13284 | 123.80387 | 3089 ft | 133 kts | 46° |
| 2026-04-22 15:13 | 10.13940 | 123.81044 | 3081 ft | 132 kts | 46° |
| 2026-04-22 15:14 | 10.14605 | 123.81709 | 3062 ft | 132 kts | 46° |
| 2026-04-22 15:14 | 10.15263 | 123.82368 | 3035 ft | 132 kts | 47° |
| 2026-04-22 15:14 | 10.15923 | 123.83031 | 3007 ft | 132 kts | 47° |
| 2026-04-22 15:14 | 10.16581 | 123.83690 | 2986 ft | 132 kts | 46° |
| 2026-04-22 15:15 | 10.17237 | 123.84347 | 2962 ft | 132 kts | 47° |
| 2026-04-22 15:15 | 10.17887 | 123.85001 | 2939 ft | 132 kts | 46° |
| 2026-04-22 15:15 | 10.18551 | 123.85666 | 2874 ft | 132 kts | 46° |
| 2026-04-22 15:15 | 10.19199 | 123.86317 | 2795 ft | 132 kts | 46° |
| 2026-04-22 15:16 | 10.19860 | 123.86979 | 2711 ft | 131 kts | 46° |
| 2026-04-22 15:16 | 10.20515 | 123.87637 | 2618 ft | 131 kts | 46° |
| 2026-04-22 15:16 | 10.21171 | 123.88294 | 2410 ft | 131 kts | 46° |
| 2026-04-22 15:16 | 10.21824 | 123.88950 | 2210 ft | 130 kts | 46° |
| 2026-04-22 15:17 | 10.22472 | 123.89600 | 2026 ft | 130 kts | 46° |
| 2026-04-22 15:17 | 10.23115 | 123.90245 | 1850 ft | 130 kts | 45° |
| 2026-04-22 15:17 | 10.23773 | 123.90906 | 1668 ft | 129 kts | 45° |
| 2026-04-22 15:17 | 10.24408 | 123.91542 | 1497 ft | 129 kts | 45° |
| 2026-04-22 15:18 | 10.25056 | 123.92192 | 1324 ft | 129 kts | 45° |
| 2026-04-22 15:18 | 10.25693 | 123.92830 | 1151 ft | 128 kts | 45° |
| 2026-04-22 15:18 | 10.26334 | 123.93474 | 976 ft | 128 kts | 45° |
| 2026-04-22 15:18 | 10.26975 | 123.94118 | 805 ft | 128 kts | 45° |
| 2026-04-22 15:19 | 10.27607 | 123.94752 | 636 ft | 128 kts | 44° |
| 2026-04-22 15:19 | 10.28237 | 123.95386 | 470 ft | 127 kts | 44° |
| 2026-04-22 15:19 | 10.28864 | 123.96022 | 299 ft | 127 kts | 45° |
| 2026-04-22 15:19 | 10.29481 | 123.96664 | 148 ft | 127 kts | 43° |
| 2026-04-22 15:20 | 10.30113 | 123.97296 | 46 ft | 124 kts | 44° |
| 2026-04-22 15:20 | 10.30623 | 123.97808 | 45 ft | 78 kts | 45° |
| 2026-04-22 15:20 | 10.30914 | 123.98099 | 45 ft | 43 kts | 45° |
| 2026-04-22 15:20 | 10.31070 | 123.98248 | 45 ft | 19 kts | 35° |
| 2026-04-22 15:21 | 10.31164 | 123.98305 | 45 ft | 12 kts | 25° |
| 2026-04-22 15:21 | 10.31225 | 123.98328 | 45 ft | 8 kts | 19° |
| 2026-04-22 15:21 | 10.31287 | 123.98347 | 45 ft | 9 kts | 16° |
| 2026-04-22 15:21 | 10.31358 | 123.98347 | 45 ft | 10 kts | 336° |
| 2026-04-22 15:22 | 10.31417 | 123.98295 | 45 ft | 11 kts | 314° |
| 2026-04-22 15:22 | 10.31478 | 123.98233 | 45 ft | 12 kts | 314° |
| 2026-04-22 15:22 | 10.31543 | 123.98167 | 45 ft | 13 kts | 315° |
| 2026-04-22 15:22 | 10.31555 | 123.98097 | 45 ft | 11 kts | 234° |
| 2026-04-22 15:23 | 10.31495 | 123.98037 | 45 ft | 12 kts | 224° |
| 2026-04-22 15:23 | 10.31454 | 123.97992 | 45 ft | 7 kts | 248° |
| 2026-04-22 15:23 | 10.31472 | 123.97961 | 45 ft | 5 kts | 317° |
| 2026-04-22 15:23 | 10.31499 | 123.97934 | 45 ft | 5 kts | 315° |
| 2026-04-22 15:24 | 10.31507 | 123.97926 | 45 ft | 0 kts | 314° |